Cornion — CQMH — position and weather

sailwx.info

Track history (hours):
 
Tides and Currents Weather Stations Pressure Air Temp Water Temp Dewpoint Dewpoint Depression Visibility Wind Speed Wind Dir Waves Ship Positions

Cornion

Last reported at 2017-Mar-26 17:32 UTC. Time now 2017-Mar-26 18:48 UTC.
Position N 36°60' E 003°00'.

Length 90 m; draft 6.2 m.

Type: Cargo ship. MMSI: 255803370.

Date/timePositionNaut miles runAvg speedWind from/ knotsBaromVisibWave heightAir tempDewpointWater temp
2017-Mar-26 17:32N 36°60' E 003°00'48 9.5
2017-Mar-26 12:29N 37°06' E 004°00'9 9.5
2017-Mar-26 11:30N 37°07' E 004°12'1010.2
2017-Mar-26 10:30N 37°08' E 004°25'388 9.7
2017-Mar-24 18:21N 37°08' E 012°32'11 9.5
2017-Mar-24 17:14N 37°05' E 012°45'7 9.8
2017-Mar-24 16:31N 37°03' E 012°53'10 9.8
2017-Mar-24 15:29N 37°01' E 013°06'9 9.6
2017-Mar-24 14:33N 36°58' E 013°16'10 9.8
2017-Mar-24 13:33N 36°55' E 013°28'10 9.8
2017-Mar-24 12:33N 36°52' E 013°39'1010.2
2017-Mar-24 11:33N 36°51' E 013°52'1110.7
2017-Mar-24 10:33N 36°47' E 014°05'1010.1
2017-Mar-24 09:33N 36°45' E 014°17'10 9.7
2017-Mar-24 08:33N 36°42' E 014°28'9 9.4
2017-Mar-24 07:33N 36°39' E 014°40'10 9.7
2017-Mar-24 06:33N 36°37' E 014°52'10 9.7
2017-Mar-24 05:33N 36°34' E 015°03'446 9.1
2017-Mar-22 04:31N 37°42' E 024°15'1010.6
2017-Mar-22 03:33N 37°49' E 024°25'1110.6
2017-Mar-22 02:33N 37°57' E 024°35'  
Track history (hours):
 
Tides and Currents Weather Stations Pressure Air Temp Water Temp Dewpoint Dewpoint Depression Visibility Wind Speed Wind Dir Waves Ship Positions

Cornion

Last reported at 2017-Mar-26 17:32 UTC. Time now 2017-Mar-26 18:48 UTC.
Position N 36°60' E 003°00'.

Length 90 m; draft 6.2 m.

Type: Cargo ship. MMSI: 255803370.

Date/timePositionNaut miles runAvg speedWind from/ knotsBaromVisibWave heightAir tempDewpointWater temp
2017-Mar-26 17:32N 36°60' E 003°00'48 9.5
2017-Mar-26 12:29N 37°06' E 004°00'9 9.5
2017-Mar-26 11:30N 37°07' E 004°12'1010.2
2017-Mar-26 10:30N 37°08' E 004°25'388 9.7
2017-Mar-24 18:21N 37°08' E 012°32'11 9.5
2017-Mar-24 17:14N 37°05' E 012°45'7 9.8
2017-Mar-24 16:31N 37°03' E 012°53'10 9.8
2017-Mar-24 15:29N 37°01' E 013°06'9 9.6
2017-Mar-24 14:33N 36°58' E 013°16'10 9.8
2017-Mar-24 13:33N 36°55' E 013°28'10 9.8
2017-Mar-24 12:33N 36°52' E 013°39'1010.2
2017-Mar-24 11:33N 36°51' E 013°52'1110.7
2017-Mar-24 10:33N 36°47' E 014°05'1010.1
2017-Mar-24 09:33N 36°45' E 014°17'10 9.7
2017-Mar-24 08:33N 36°42' E 014°28'9 9.4
2017-Mar-24 07:33N 36°39' E 014°40'10 9.7
2017-Mar-24 06:33N 36°37' E 014°52'10 9.7
2017-Mar-24 05:33N 36°34' E 015°03'446 9.1
2017-Mar-22 04:31N 37°42' E 024°15'1010.6
2017-Mar-22 03:33N 37°49' E 024°25'1110.6
2017-Mar-22 02:33N 37°57' E 024°35'  

Dump ship's entire track history